Coral Leaf — PHNI — position and weather

sailwx.info

Track history (hours):
 
Tides and Currents Weather Stations Pressure Air Temp Water Temp Dewpoint Dewpoint Depression Visibility Wind Speed Wind Dir Waves Ship Positions

Coral Leaf

Last reported at 2014-Nov-27 13:05 UTC. Time now 2014-Nov-27 23:12 UTC.
Position N 59°36' E 023°14'.

Length 108 m; draft 6.8 m.

Type: Tanker. MMSI: 244036000.

Date/timePositionNaut miles runAvg speedWind from/ knotsBaromVisibWave heightAir tempDewpointWater temp
2014-Nov-27 13:05N 59°36' E 023°14'813.8
2014-Nov-27 12:31N 59°38' E 023°29'1313.8
2014-Nov-27 11:33N 59°42' E 023°54'1613.8
2014-Nov-27 10:25N 59°46' E 024°24'7 0.1
2014-Nov-25 06:33N 59°45' E 024°37'2215.0
2014-Nov-25 05:04N 59°38' E 023°54'814.9
2014-Nov-25 04:33N 59°36' E 023°40'22914.3
2014-Nov-24 12:33N 57°21' E 017°46'1313.3
2014-Nov-24 11:33N 57°08' E 017°42'54 9.0
2014-Nov-24 05:30N 56°17' E 017°08'1414.2
2014-Nov-24 04:33N 56°06' E 016°53'1713.4
2014-Nov-24 03:16N 55°57' E 016°27'4514.0
2014-Nov-24 00:04N 55°36' E 015°17'814.5
2014-Nov-23 23:33N 55°32' E 015°05'1514.9
2014-Nov-23 22:33N 55°25' E 014°42'1515.5
2014-Nov-23 21:34N 55°14' E 014°24'1515.5
2014-Nov-23 20:33N 55°01' E 014°08'6913.1
2014-Nov-23 15:15N 54°34' E 012°17'1013.2
2014-Nov-23 14:29N 54°25' E 012°10'1212.8
2014-Nov-23 13:34N 54°24' E 011°49'5112.7
2014-Nov-23 09:33N 54°31' E 010°23'1111.1
2014-Nov-23 08:33N 54°22' E 010°10'2 1.9
2014-Nov-23 07:33N 54°22' E 010°07'7 6.6
2014-Nov-23 06:33N 54°20' E 009°56'7 6.6
2014-Nov-23 05:33N 54°20' E 009°45'7 7.4
2014-Nov-23 04:33N 54°15' E 009°37'7 7.1
2014-Nov-23 03:32N 54°10' E 009°27'5 4.6
2014-Nov-23 02:29N 54°08' E 009°20'7 7.2
2014-Nov-23 01:33N 54°01' E 009°18'5 5.4
2014-Nov-23 00:33N 53°57' E 009°13'4 4.1
2014-Nov-22 23:33N 53°54' E 009°09'2 1.9
2014-Nov-22 22:33N 53°53' E 009°06'3 2.9
2014-Nov-22 21:33N 53°51' E 009°01'1413.9
2014-Nov-22 20:33N 53°56' E 008°39'1716.6
2014-Nov-22 19:33N 53°60' E 008°11'1515.3
2014-Nov-22 18:33N 53°56' E 007°46'1514.9
2014-Nov-22 17:33N 53°53' E 007°22'5613.9
2014-Nov-22 13:33N 53°39' E 005°50'1413.7
2014-Nov-22 12:33N 53°35' E 005°28'1313.4
2014-Nov-22 11:33N 53°31' E 005°07'1414.0
2014-Nov-22 10:33N 53°25' E 004°46'1514.5
2014-Nov-22 09:33N 53°12' E 004°34'1514.8
2014-Nov-22 08:33N 52°60' E 004°20'1614.4
2014-Nov-22 07:27N 52°45' E 004°08'1314.7
2014-Nov-22 06:33N 52°36' E 003°53'1714.9
2014-Nov-22 05:26N 52°23' E 003°35'1415.8
2014-Nov-22 04:33N 52°10' E 003°28'1616.2
2014-Nov-22 03:33N 51°54' E 003°23'1413.5
2014-Nov-22 02:32N 51°41' E 003°19'1616.3
2014-Nov-22 01:33N 51°27' E 003°32'1313.2
2014-Nov-22 00:34N 51°21' E 003°50'8 7.9
2014-Nov-21 23:34N 51°23' E 004°03'9 9.2
2014-Nov-21 22:34N 51°21' E 004°17'0 0.0
2014-Nov-21 21:33N 51°21' E 004°17'1 0.7
2014-Nov-21 20:32N 51°20' E 004°18'4 4.1
2014-Nov-21 19:33N 51°17' E 004°21'2 1.8
2014-Nov-21 18:33N 51°15' E 004°21'0 0.0
2014-Nov-21 17:33N 51°15' E 004°21'0 0.0
2014-Nov-21 16:33N 51°15' E 004°21'0 0.0
2014-Nov-21 15:30N 51°15' E 004°21'0 0.0
2014-Nov-21 14:32N 51°15' E 004°21'0 0.0
2014-Nov-21 13:32N 51°15' E 004°21'0 0.0
2014-Nov-21 12:32N 51°15' E 004°21'0 0.0
2014-Nov-21 11:32N 51°15' E 004°21'0 0.0
2014-Nov-21 10:32N 51°15' E 004°21'0 0.0
2014-Nov-21 09:32N 51°15' E 004°21'0 0.0
2014-Nov-21 08:29N 51°15' E 004°21'0 0.0
2014-Nov-21 07:32N 51°15' E 004°21'0 0.0
2014-Nov-21 06:32N 51°15' E 004°21'0 0.0
2014-Nov-21 05:31N 51°15' E 004°21'0 0.0
2014-Nov-21 04:28N 51°15' E 004°21'0 0.0
2014-Nov-21 03:31N 51°15' E 004°21'0 0.0
2014-Nov-21 02:31N 51°15' E 004°21'0 0.0
2014-Nov-21 01:31N 51°15' E 004°21'0 0.5
2014-Nov-21 00:34N 51°15' E 004°21'6 5.9
2014-Nov-20 23:33N 51°21' E 004°17'0 0.2
2014-Nov-20 22:34N 51°21' E 004°17'2 1.5
2014-Nov-20 21:33N 51°21' E 004°14'6 5.8
2014-Nov-20 20:33N 51°22' E 004°05'9 9.2
2014-Nov-20 19:33N 51°21' E 003°51'1111.3
2014-Nov-20 18:33N 51°25' E 003°34'1211.4
2014-Nov-20 17:33N 51°35' E 003°24'7312.2
2014-Nov-20 11:33N 52°31' E 002°08'1212.2
2014-Nov-20 10:33N 52°42' E 001°58'1312.7
2014-Nov-20 09:33N 52°51' E 001°44'1413.6
2014-Nov-20 08:33N 53°01' E 001°30'1514.3
2014-Nov-20 07:32N 53°14' E 001°17'3414.0
2014-Nov-20 05:05N 53°42' E 000°45'714.0
2014-Nov-20 04:33N 53°48' E 000°37'1414.2
2014-Nov-20 03:33N 53°60' E 000°23'1514.6
2014-Nov-20 02:33N 54°12' E 000°10'1514.6
2014-Nov-20 01:33N 54°24' W 000°04'1414.3
2014-Nov-20 00:34N 54°36' W 000°17'1413.8
2014-Nov-19 23:33N 54°48' W 000°30'1413.4
2014-Nov-19 22:33N 54°60' W 000°42'1313.0
2014-Nov-19 21:32N 55°11' W 000°53'6512.1
2014-Nov-19 16:11N 56°02' W 002°05'711.7
2014-Nov-19 15:33N 56°06' W 002°16'1312.7
2014-Nov-19 14:33N 56°07' W 002°38'1313.4
2014-Nov-19 13:33N 56°03' W 003°01'10 9.7
2014-Nov-19 12:33N 56°02' W 003°19'0 0.0
2014-Nov-19 11:32N 56°02' W 003°19'0 0.0
2014-Nov-19 10:31N 56°02' W 003°19'0 0.0
2014-Nov-19 09:32N 56°02' W 003°19'0 0.0
2014-Nov-19 08:32N 56°02' W 003°19'0 0.0
2014-Nov-19 07:32N 56°02' W 003°19'0 0.0
2014-Nov-19 06:32N 56°02' W 003°19'0 0.0
2014-Nov-19 05:32N 56°02' W 003°19'0 0.0
2014-Nov-19 04:32N 56°02' W 003°19'0 0.0
2014-Nov-19 03:25N 56°02' W 003°19'0 0.0
2014-Nov-19 02:29N 56°02' W 003°19'0 0.0
2014-Nov-19 01:29N 56°02' W 003°19'0 0.0
2014-Nov-19 00:31N 56°02' W 003°19'0 0.0
2014-Nov-18 23:31N 56°02' W 003°19'0 0.0
2014-Nov-18 22:31N 56°02' W 003°19'0 0.0
2014-Nov-18 21:31N 56°02' W 003°19'0 0.0
2014-Nov-18 20:31N 56°02' W 003°19'0 0.0
2014-Nov-18 19:32N 56°02' W 003°19'1 0.9
2014-Nov-18 18:33N 56°01' W 003°19'8 7.6
2014-Nov-18 17:33N 56°04' W 003°06'1 0.8
2014-Nov-18 16:33N 56°05' W 003°06'0 0.0
2014-Nov-18 15:31N 56°05' W 003°06'0 0.0
2014-Nov-18 14:31N 56°05' W 003°06'0 0.0
2014-Nov-18 13:19N 56°05' W 003°06'0 0.0
2014-Nov-18 12:31N 56°05' W 003°06'0 0.0
2014-Nov-18 11:31N 56°05' W 003°06'0 0.0
2014-Nov-18 10:22N 56°05' W 003°06'1 0.8
2014-Nov-18 09:33N 56°05' W 003°05'1414.4
2014-Nov-18 08:34N 56°08' W 002°40'1514.8
2014-Nov-18 07:33N 56°08' W 002°13'1514.9
2014-Nov-18 06:32N 56°09' W 001°46'  
Track history (hours):
 
Tides and Currents Weather Stations Pressure Air Temp Water Temp Dewpoint Dewpoint Depression Visibility Wind Speed Wind Dir Waves Ship Positions

Coral Leaf

Last reported at 2014-Nov-27 13:05 UTC. Time now 2014-Nov-27 23:12 UTC.
Position N 59°36' E 023°14'.

Length 108 m; draft 6.8 m.

Type: Tanker. MMSI: 244036000.

Date/timePositionNaut miles runAvg speedWind from/ knotsBaromVisibWave heightAir tempDewpointWater temp
2014-Nov-27 13:05N 59°36' E 023°14'813.8
2014-Nov-27 12:31N 59°38' E 023°29'1313.8
2014-Nov-27 11:33N 59°42' E 023°54'1613.8
2014-Nov-27 10:25N 59°46' E 024°24'7 0.1
2014-Nov-25 06:33N 59°45' E 024°37'2215.0
2014-Nov-25 05:04N 59°38' E 023°54'814.9
2014-Nov-25 04:33N 59°36' E 023°40'22914.3
2014-Nov-24 12:33N 57°21' E 017°46'1313.3
2014-Nov-24 11:33N 57°08' E 017°42'54 9.0
2014-Nov-24 05:30N 56°17' E 017°08'1414.2
2014-Nov-24 04:33N 56°06' E 016°53'1713.4
2014-Nov-24 03:16N 55°57' E 016°27'4514.0
2014-Nov-24 00:04N 55°36' E 015°17'814.5
2014-Nov-23 23:33N 55°32' E 015°05'1514.9
2014-Nov-23 22:33N 55°25' E 014°42'1515.5
2014-Nov-23 21:34N 55°14' E 014°24'1515.5
2014-Nov-23 20:33N 55°01' E 014°08'6913.1
2014-Nov-23 15:15N 54°34' E 012°17'1013.2
2014-Nov-23 14:29N 54°25' E 012°10'1212.8
2014-Nov-23 13:34N 54°24' E 011°49'5112.7
2014-Nov-23 09:33N 54°31' E 010°23'1111.1
2014-Nov-23 08:33N 54°22' E 010°10'2 1.9
2014-Nov-23 07:33N 54°22' E 010°07'7 6.6
2014-Nov-23 06:33N 54°20' E 009°56'7 6.6
2014-Nov-23 05:33N 54°20' E 009°45'7 7.4
2014-Nov-23 04:33N 54°15' E 009°37'7 7.1
2014-Nov-23 03:32N 54°10' E 009°27'5 4.6
2014-Nov-23 02:29N 54°08' E 009°20'7 7.2
2014-Nov-23 01:33N 54°01' E 009°18'5 5.4
2014-Nov-23 00:33N 53°57' E 009°13'4 4.1
2014-Nov-22 23:33N 53°54' E 009°09'2 1.9
2014-Nov-22 22:33N 53°53' E 009°06'3 2.9
2014-Nov-22 21:33N 53°51' E 009°01'1413.9
2014-Nov-22 20:33N 53°56' E 008°39'1716.6
2014-Nov-22 19:33N 53°60' E 008°11'1515.3
2014-Nov-22 18:33N 53°56' E 007°46'1514.9
2014-Nov-22 17:33N 53°53' E 007°22'5613.9
2014-Nov-22 13:33N 53°39' E 005°50'1413.7
2014-Nov-22 12:33N 53°35' E 005°28'1313.4
2014-Nov-22 11:33N 53°31' E 005°07'1414.0
2014-Nov-22 10:33N 53°25' E 004°46'1514.5
2014-Nov-22 09:33N 53°12' E 004°34'1514.8
2014-Nov-22 08:33N 52°60' E 004°20'1614.4
2014-Nov-22 07:27N 52°45' E 004°08'1314.7
2014-Nov-22 06:33N 52°36' E 003°53'1714.9
2014-Nov-22 05:26N 52°23' E 003°35'1415.8
2014-Nov-22 04:33N 52°10' E 003°28'1616.2
2014-Nov-22 03:33N 51°54' E 003°23'1413.5
2014-Nov-22 02:32N 51°41' E 003°19'1616.3
2014-Nov-22 01:33N 51°27' E 003°32'1313.2
2014-Nov-22 00:34N 51°21' E 003°50'8 7.9
2014-Nov-21 23:34N 51°23' E 004°03'9 9.2
2014-Nov-21 22:34N 51°21' E 004°17'0 0.0
2014-Nov-21 21:33N 51°21' E 004°17'1 0.7
2014-Nov-21 20:32N 51°20' E 004°18'4 4.1
2014-Nov-21 19:33N 51°17' E 004°21'2 1.8
2014-Nov-21 18:33N 51°15' E 004°21'0 0.0
2014-Nov-21 17:33N 51°15' E 004°21'0 0.0
2014-Nov-21 16:33N 51°15' E 004°21'0 0.0
2014-Nov-21 15:30N 51°15' E 004°21'0 0.0
2014-Nov-21 14:32N 51°15' E 004°21'0 0.0
2014-Nov-21 13:32N 51°15' E 004°21'0 0.0
2014-Nov-21 12:32N 51°15' E 004°21'0 0.0
2014-Nov-21 11:32N 51°15' E 004°21'0 0.0
2014-Nov-21 10:32N 51°15' E 004°21'0 0.0
2014-Nov-21 09:32N 51°15' E 004°21'0 0.0
2014-Nov-21 08:29N 51°15' E 004°21'0 0.0
2014-Nov-21 07:32N 51°15' E 004°21'0 0.0
2014-Nov-21 06:32N 51°15' E 004°21'0 0.0
2014-Nov-21 05:31N 51°15' E 004°21'0 0.0
2014-Nov-21 04:28N 51°15' E 004°21'0 0.0
2014-Nov-21 03:31N 51°15' E 004°21'0 0.0
2014-Nov-21 02:31N 51°15' E 004°21'0 0.0
2014-Nov-21 01:31N 51°15' E 004°21'0 0.5
2014-Nov-21 00:34N 51°15' E 004°21'6 5.9
2014-Nov-20 23:33N 51°21' E 004°17'0 0.2
2014-Nov-20 22:34N 51°21' E 004°17'2 1.5
2014-Nov-20 21:33N 51°21' E 004°14'6 5.8
2014-Nov-20 20:33N 51°22' E 004°05'9 9.2
2014-Nov-20 19:33N 51°21' E 003°51'1111.3
2014-Nov-20 18:33N 51°25' E 003°34'1211.4
2014-Nov-20 17:33N 51°35' E 003°24'7312.2
2014-Nov-20 11:33N 52°31' E 002°08'1212.2
2014-Nov-20 10:33N 52°42' E 001°58'1312.7
2014-Nov-20 09:33N 52°51' E 001°44'1413.6
2014-Nov-20 08:33N 53°01' E 001°30'1514.3
2014-Nov-20 07:32N 53°14' E 001°17'3414.0
2014-Nov-20 05:05N 53°42' E 000°45'714.0
2014-Nov-20 04:33N 53°48' E 000°37'1414.2
2014-Nov-20 03:33N 53°60' E 000°23'1514.6
2014-Nov-20 02:33N 54°12' E 000°10'1514.6
2014-Nov-20 01:33N 54°24' W 000°04'1414.3
2014-Nov-20 00:34N 54°36' W 000°17'1413.8
2014-Nov-19 23:33N 54°48' W 000°30'1413.4
2014-Nov-19 22:33N 54°60' W 000°42'1313.0
2014-Nov-19 21:32N 55°11' W 000°53'6512.1
2014-Nov-19 16:11N 56°02' W 002°05'711.7
2014-Nov-19 15:33N 56°06' W 002°16'1312.7
2014-Nov-19 14:33N 56°07' W 002°38'1313.4
2014-Nov-19 13:33N 56°03' W 003°01'10 9.7
2014-Nov-19 12:33N 56°02' W 003°19'0 0.0
2014-Nov-19 11:32N 56°02' W 003°19'0 0.0
2014-Nov-19 10:31N 56°02' W 003°19'0 0.0
2014-Nov-19 09:32N 56°02' W 003°19'0 0.0
2014-Nov-19 08:32N 56°02' W 003°19'0 0.0
2014-Nov-19 07:32N 56°02' W 003°19'0 0.0
2014-Nov-19 06:32N 56°02' W 003°19'0 0.0
2014-Nov-19 05:32N 56°02' W 003°19'0 0.0
2014-Nov-19 04:32N 56°02' W 003°19'0 0.0
2014-Nov-19 03:25N 56°02' W 003°19'0 0.0
2014-Nov-19 02:29N 56°02' W 003°19'0 0.0
2014-Nov-19 01:29N 56°02' W 003°19'0 0.0
2014-Nov-19 00:31N 56°02' W 003°19'0 0.0
2014-Nov-18 23:31N 56°02' W 003°19'0 0.0
2014-Nov-18 22:31N 56°02' W 003°19'0 0.0
2014-Nov-18 21:31N 56°02' W 003°19'0 0.0
2014-Nov-18 20:31N 56°02' W 003°19'0 0.0
2014-Nov-18 19:32N 56°02' W 003°19'1 0.9
2014-Nov-18 18:33N 56°01' W 003°19'8 7.6
2014-Nov-18 17:33N 56°04' W 003°06'1 0.8
2014-Nov-18 16:33N 56°05' W 003°06'0 0.0
2014-Nov-18 15:31N 56°05' W 003°06'0 0.0
2014-Nov-18 14:31N 56°05' W 003°06'0 0.0
2014-Nov-18 13:19N 56°05' W 003°06'0 0.0
2014-Nov-18 12:31N 56°05' W 003°06'0 0.0
2014-Nov-18 11:31N 56°05' W 003°06'0 0.0
2014-Nov-18 10:22N 56°05' W 003°06'1 0.8
2014-Nov-18 09:33N 56°05' W 003°05'1414.4
2014-Nov-18 08:34N 56°08' W 002°40'1514.8
2014-Nov-18 07:33N 56°08' W 002°13'1514.9
2014-Nov-18 06:32N 56°09' W 001°46'  

Dump ship's entire track history